Clyde Park, MT

8:22 PM MDT on October 01, 2014 (GMT -0600)
Mission | Change Station
CLOSE
Current Station
Airport
Location: Livingston,
Elevation: 4656 ft
Nearby Weather Stations

Elev 4656 ft 45.70 °N, 110.44 °W | Updated 29 minutes ago

Clear
Clear
47 °F
Feels Like 47 °F
N
10
Wind Variable Wind from West

Today
High -- | Low -- °F
--% Chance of Precip.
Yesterday
High -- | Low -- °F
Precip. -- in
7:20 AM 7:01 PM
First Quarter, 53% visible
Pressure 29.99 in
Visibility 10.0 miles
Clouds Clear
Dew Point 32 °F
Humidity 56%
Rainfall 0.18 in
Snow Depth 0 in , 0 in , 0 in
UV 0 out of 12
Pollen 3.40 out of 12
Air Quality Not available.
Flu Activity Not available.
METAR KLVM 020153Z AUTO 27009KT 10SM CLR 08/00 A2999 RMK AO2 SLP153 T00830000

More Conditions Fewer Conditions

Pressure 29.99 in
Visibility 10.0 miles
Clouds Clear
Dew Point 32 °F
Humidity 56%
Rainfall 0.18 in
Snow Depth 0 in , 0 in , 0 in
UV 0 out of 12
Pollen 3.40 out of 12
Air Quality Not available.
Flu Activity Not available.
METAR KLVM 020153Z AUTO 27009KT 10SM CLR 08/00 A2999 RMK AO2 SLP153 T00830000

More Conditions Fewer Conditions

10-Day Weather Forecast

Almanac

Astronomy

Oct. 01, 2014 Rise Set
Actual Time 7:20 AM MDT 7:01 PM MDT
Civil Twilight 6:50 AM MDT 7:31 PM MDT
Nautical Twilight 6:16 AM MDT 8:05 PM MDT
Astronomical Twilight 5:40 AM MDT 8:40 PM MDT
Moon 2:36 PM MDT (10/1) No Moon Set
Length of Visible Light 12h 40m
Length of Day
11h 41m
Tomorrow will be 3m 10s shorter.
First Quarter, 53% of the Moon is Illuminated
Today
First Quarter
Oct 8
Full
Oct 15
Last Quarter
Oct 23
New
Oct 30
First Quarter

Today's Extremes

State Highs State Lows

Community

WunderPhotos

Upload Photos

1,758,142 photos uploaded!

WunderBlogs® & News

Nearby

Snow Depth

Station Depth Elevation
Mule Creek 0 in 8300 ft
Moss Peak 0 in 6780 ft
Short Creek 0 in 7000 ft
Porcupine 0 in 6500 ft
Brackett Creek 1 in 7320 ft

Earthquake Activity

City Distance Mag. Time & Date
No recent earthquake activity has been reported nearby.
Minimum magnitude displayed is 2.5.

Coastal Water Temperatures

Place Temperature
No Stations Reporting

Nearby Weather Stations